sensor_id;sensor_type;location;lat;lon;timestamp;P1;durP1;ratioP1;P2;durP2;ratioP2
41446;SDS011;27185;52.040;4.490;2024-03-23T00:53:27;14.43;;;3.20;;
41446;SDS011;27185;52.040;4.490;2024-03-23T00:56:13;13.82;;;3.67;;
41446;SDS011;27185;52.040;4.490;2024-03-23T00:58:59;12.10;;;3.50;;
41446;SDS011;27185;52.040;4.490;2024-03-23T01:01:44;12.52;;;3.42;;
41446;SDS011;27185;52.040;4.490;2024-03-23T01:04:30;11.93;;;2.75;;
41446;SDS011;27185;52.040;4.490;2024-03-23T01:07:15;19.67;;;3.63;;
41446;SDS011;27185;52.040;4.490;2024-03-23T01:10:01;16.55;;;2.67;;
41446;SDS011;27185;52.040;4.490;2024-03-23T01:12:47;19.90;;;2.58;;
41446;SDS011;27185;52.040;4.490;2024-03-23T01:15:32;14.43;;;3.42;;
41446;SDS011;27185;52.040;4.490;2024-03-23T01:18:18;15.25;;;3.10;;
41446;SDS011;27185;52.040;4.490;2024-03-23T01:21:04;18.15;;;2.05;;
41446;SDS011;27185;52.040;4.490;2024-03-23T01:23:49;11.65;;;2.45;;
41446;SDS011;27185;52.040;4.490;2024-03-23T01:26:35;12.90;;;2.65;;
41446;SDS011;27185;52.040;4.490;2024-03-23T01:29:22;13.05;;;2.67;;
41446;SDS011;27185;52.040;4.490;2024-03-23T01:32:07;11.73;;;2.00;;
41446;SDS011;27185;52.040;4.490;2024-03-23T01:34:53;10.40;;;1.70;;
41446;SDS011;27185;52.040;4.490;2024-03-23T01:37:38;15.48;;;2.08;;
41446;SDS011;27185;52.040;4.490;2024-03-23T01:40:24;11.85;;;2.47;;
41446;SDS011;27185;52.040;4.490;2024-03-23T01:43:09;14.35;;;2.10;;
41446;SDS011;27185;52.040;4.490;2024-03-23T01:45:55;15.80;;;1.70;;
41446;SDS011;27185;52.040;4.490;2024-03-23T01:48:41;9.75;;;1.73;;
41446;SDS011;27185;52.040;4.490;2024-03-23T01:51:27;11.10;;;1.40;;
41446;SDS011;27185;52.040;4.490;2024-03-23T01:54:13;13.23;;;2.13;;
41446;SDS011;27185;52.040;4.490;2024-03-23T01:56:59;10.48;;;1.88;;
41446;SDS011;27185;52.040;4.490;2024-03-23T01:59:45;9.23;;;1.63;;
41446;SDS011;27185;52.040;4.490;2024-03-23T02:02:30;10.75;;;1.48;;
41446;SDS011;27185;52.040;4.490;2024-03-23T02:05:16;10.35;;;1.38;;
41446;SDS011;27185;52.040;4.490;2024-03-23T02:08:02;9.98;;;2.08;;
41446;SDS011;27185;52.040;4.490;2024-03-23T02:10:48;6.47;;;1.35;;
41446;SDS011;27185;52.040;4.490;2024-03-23T02:13:34;13.93;;;1.92;;
41446;SDS011;27185;52.040;4.490;2024-03-23T02:16:20;13.48;;;1.77;;
41446;SDS011;27185;52.040;4.490;2024-03-23T02:19:05;11.82;;;1.80;;
41446;SDS011;27185;52.040;4.490;2024-03-23T02:21:51;12.85;;;2.38;;
41446;SDS011;27185;52.040;4.490;2024-03-23T02:24:37;13.02;;;1.60;;
41446;SDS011;27185;52.040;4.490;2024-03-23T02:27:22;9.55;;;1.25;;
41446;SDS011;27185;52.040;4.490;2024-03-23T02:30:09;8.73;;;1.52;;
41446;SDS011;27185;52.040;4.490;2024-03-23T02:32:55;10.25;;;1.20;;
41446;SDS011;27185;52.040;4.490;2024-03-23T02:35:41;11.98;;;1.33;;
41446;SDS011;27185;52.040;4.490;2024-03-23T02:38:27;15.52;;;1.58;;
41446;SDS011;27185;52.040;4.490;2024-03-23T02:41:12;6.40;;;1.45;;
41446;SDS011;27185;52.040;4.490;2024-03-23T02:43:58;9.93;;;1.13;;
41446;SDS011;27185;52.040;4.490;2024-03-23T02:46:44;6.05;;;0.98;;
41446;SDS011;27185;52.040;4.490;2024-03-23T02:49:29;9.23;;;1.50;;
41446;SDS011;27185;52.040;4.490;2024-03-23T02:52:15;7.32;;;1.10;;
41446;SDS011;27185;52.040;4.490;2024-03-23T02:55:01;8.18;;;1.38;;
41446;SDS011;27185;52.040;4.490;2024-03-23T02:57:47;13.23;;;1.45;;
41446;SDS011;27185;52.040;4.490;2024-03-23T03:00:32;7.57;;;1.33;;
41446;SDS011;27185;52.040;4.490;2024-03-23T03:03:18;9.25;;;1.17;;
41446;SDS011;27185;52.040;4.490;2024-03-23T03:06:03;5.55;;;1.30;;
41446;SDS011;27185;52.040;4.490;2024-03-23T03:08:49;9.30;;;1.58;;
41446;SDS011;27185;52.040;4.490;2024-03-23T03:11:35;14.98;;;1.77;;
41446;SDS011;27185;52.040;4.490;2024-03-23T03:14:21;12.43;;;1.33;;
41446;SDS011;27185;52.040;4.490;2024-03-23T03:17:06;6.38;;;0.93;;
41446;SDS011;27185;52.040;4.490;2024-03-23T03:19:52;7.53;;;1.25;;
41446;SDS011;27185;52.040;4.490;2024-03-23T03:22:40;8.70;;;1.20;;
41446;SDS011;27185;52.040;4.490;2024-03-23T03:25:26;10.10;;;1.10;;
41446;SDS011;27185;52.040;4.490;2024-03-23T03:28:11;10.75;;;1.45;;
41446;SDS011;27185;52.040;4.490;2024-03-23T03:30:57;13.93;;;1.23;;
41446;SDS011;27185;52.040;4.490;2024-03-23T03:33:42;10.63;;;1.45;;
41446;SDS011;27185;52.040;4.490;2024-03-23T03:36:28;13.65;;;2.00;;
41446;SDS011;27185;52.040;4.490;2024-03-23T03:39:14;14.18;;;1.50;;
41446;SDS011;27185;52.040;4.490;2024-03-23T03:41:59;9.07;;;1.38;;
41446;SDS011;27185;52.040;4.490;2024-03-23T03:44:46;6.53;;;1.50;;
41446;SDS011;27185;52.040;4.490;2024-03-23T03:47:32;12.45;;;1.02;;
41446;SDS011;27185;52.040;4.490;2024-03-23T03:50:17;12.18;;;1.45;;
41446;SDS011;27185;52.040;4.490;2024-03-23T03:53:03;12.60;;;2.25;;
41446;SDS011;27185;52.040;4.490;2024-03-23T03:55:49;11.85;;;1.27;;
41446;SDS011;27185;52.040;4.490;2024-03-23T03:58:35;10.45;;;1.48;;
41446;SDS011;27185;52.040;4.490;2024-03-23T04:01:20;7.28;;;1.10;;
41446;SDS011;27185;52.040;4.490;2024-03-23T04:04:06;8.55;;;1.40;;
41446;SDS011;27185;52.040;4.490;2024-03-23T04:07:00;8.80;;;0.82;;
41446;SDS011;27185;52.040;4.490;2024-03-23T04:09:46;13.35;;;1.58;;
41446;SDS011;27185;52.040;4.490;2024-03-23T04:12:32;7.30;;;1.27;;
41446;SDS011;27185;52.040;4.490;2024-03-23T04:15:18;13.35;;;1.40;;
41446;SDS011;27185;52.040;4.490;2024-03-23T04:18:03;6.72;;;0.90;;
41446;SDS011;27185;52.040;4.490;2024-03-23T04:20:49;10.45;;;1.25;;
41446;SDS011;27185;52.040;4.490;2024-03-23T04:23:35;7.15;;;1.05;;
41446;SDS011;27185;52.040;4.490;2024-03-23T04:26:20;5.50;;;0.90;;
41446;SDS011;27185;52.040;4.490;2024-03-23T04:29:06;6.93;;;1.00;;
41446;SDS011;27185;52.040;4.490;2024-03-23T04:31:52;8.68;;;1.40;;
41446;SDS011;27185;52.040;4.490;2024-03-23T04:34:37;9.30;;;2.38;;
41446;SDS011;27185;52.040;4.490;2024-03-23T04:37:24;5.75;;;0.95;;
41446;SDS011;27185;52.040;4.490;2024-03-23T04:40:10;8.27;;;1.60;;
41446;SDS011;27185;52.040;4.490;2024-03-23T04:42:56;12.23;;;1.42;;
41446;SDS011;27185;52.040;4.490;2024-03-23T04:45:41;11.18;;;2.53;;
41446;SDS011;27185;52.040;4.490;2024-03-23T04:48:27;13.40;;;1.38;;
41446;SDS011;27185;52.040;4.490;2024-03-23T04:51:25;8.00;;;1.50;;
41446;SDS011;27185;52.040;4.490;2024-03-23T04:54:14;10.10;;;1.65;;
41446;SDS011;27185;52.040;4.490;2024-03-23T04:57:00;13.20;;;1.60;;
41446;SDS011;27185;52.040;4.490;2024-03-23T04:59:46;11.00;;;1.55;;
41446;SDS011;27185;52.040;4.490;2024-03-23T05:02:32;12.32;;;1.50;;
41446;SDS011;27185;52.040;4.490;2024-03-23T05:05:19;15.63;;;1.75;;
41446;SDS011;27185;52.040;4.490;2024-03-23T05:08:05;14.07;;;2.75;;
41446;SDS011;27185;52.040;4.490;2024-03-23T05:10:51;9.70;;;2.00;;
41446;SDS011;27185;52.040;4.490;2024-03-23T05:13:37;11.32;;;2.47;;
41446;SDS011;27185;52.040;4.490;2024-03-23T05:16:22;14.23;;;2.40;;
41446;SDS011;27185;52.040;4.490;2024-03-23T05:19:08;11.65;;;1.98;;
41446;SDS011;27185;52.040;4.490;2024-03-23T05:21:54;13.57;;;2.55;;
41446;SDS011;27185;52.040;4.490;2024-03-23T05:24:39;13.73;;;1.92;;
41446;SDS011;27185;52.040;4.490;2024-03-23T05:27:25;13.50;;;1.92;;
41446;SDS011;27185;52.040;4.490;2024-03-23T05:30:10;29.25;;;2.55;;
41446;SDS011;27185;52.040;4.490;2024-03-23T05:32:56;8.23;;;1.63;;
41446;SDS011;27185;52.040;4.490;2024-03-23T05:35:42;12.25;;;1.73;;
41446;SDS011;27185;52.040;4.490;2024-03-23T05:38:27;9.95;;;2.00;;
41446;SDS011;27185;52.040;4.490;2024-03-23T05:41:13;13.60;;;2.42;;
41446;SDS011;27185;52.040;4.490;2024-03-23T05:43:59;14.77;;;2.67;;
41446;SDS011;27185;52.040;4.490;2024-03-23T05:46:45;10.98;;;1.92;;
41446;SDS011;27185;52.040;4.490;2024-03-23T05:49:33;11.27;;;2.15;;
41446;SDS011;27185;52.040;4.490;2024-03-23T05:52:19;13.88;;;2.38;;
41446;SDS011;27185;52.040;4.490;2024-03-23T05:55:06;12.90;;;2.78;;
41446;SDS011;27185;52.040;4.490;2024-03-23T05:57:52;8.52;;;1.42;;
41446;SDS011;27185;52.040;4.490;2024-03-23T06:00:37;15.50;;;2.10;;
41446;SDS011;27185;52.040;4.490;2024-03-23T06:03:23;12.20;;;2.08;;
41446;SDS011;27185;52.040;4.490;2024-03-23T06:06:09;6.35;;;1.65;;
41446;SDS011;27185;52.040;4.490;2024-03-23T06:08:56;13.90;;;2.75;;
41446;SDS011;27185;52.040;4.490;2024-03-23T06:11:42;14.90;;;3.00;;
41446;SDS011;27185;52.040;4.490;2024-03-23T06:14:28;10.43;;;1.90;;
41446;SDS011;27185;52.040;4.490;2024-03-23T06:17:13;12.48;;;1.60;;
41446;SDS011;27185;52.040;4.490;2024-03-23T06:19:59;14.90;;;2.65;;
41446;SDS011;27185;52.040;4.490;2024-03-23T06:22:44;11.80;;;1.60;;
41446;SDS011;27185;52.040;4.490;2024-03-23T06:25:30;11.35;;;1.52;;
41446;SDS011;27185;52.040;4.490;2024-03-23T06:28:16;9.80;;;1.65;;
41446;SDS011;27185;52.040;4.490;2024-03-23T06:31:01;11.60;;;1.58;;
41446;SDS011;27185;52.040;4.490;2024-03-23T06:33:47;11.35;;;1.65;;
41446;SDS011;27185;52.040;4.490;2024-03-23T06:36:33;13.80;;;1.95;;
41446;SDS011;27185;52.040;4.490;2024-03-23T06:39:20;13.15;;;1.95;;
41446;SDS011;27185;52.040;4.490;2024-03-23T06:42:06;8.68;;;1.73;;
41446;SDS011;27185;52.040;4.490;2024-03-23T06:44:53;9.48;;;1.45;;
41446;SDS011;27185;52.040;4.490;2024-03-23T06:47:38;8.68;;;1.02;;
41446;SDS011;27185;52.040;4.490;2024-03-23T06:50:24;11.93;;;2.10;;
41446;SDS011;27185;52.040;4.490;2024-03-23T06:53:10;11.15;;;1.65;;
41446;SDS011;27185;52.040;4.490;2024-03-23T06:55:55;8.38;;;1.35;;
41446;SDS011;27185;52.040;4.490;2024-03-23T06:58:41;12.43;;;1.40;;
41446;SDS011;27185;52.040;4.490;2024-03-23T07:01:27;11.07;;;1.55;;
41446;SDS011;27185;52.040;4.490;2024-03-23T07:04:13;12.93;;;1.88;;
41446;SDS011;27185;52.040;4.490;2024-03-23T07:06:59;11.15;;;1.35;;
41446;SDS011;27185;52.040;4.490;2024-03-23T07:09:45;12.43;;;1.33;;
41446;SDS011;27185;52.040;4.490;2024-03-23T07:12:30;13.45;;;1.63;;
41446;SDS011;27185;52.040;4.490;2024-03-23T07:15:16;13.02;;;1.60;;
41446;SDS011;27185;52.040;4.490;2024-03-23T07:18:01;12.55;;;1.70;;
41446;SDS011;27185;52.040;4.490;2024-03-23T07:23:44;10.27;;;1.95;;
41446;SDS011;27185;52.040;4.490;2024-03-23T07:26:30;9.52;;;1.30;;
41446;SDS011;27185;52.040;4.490;2024-03-23T07:29:15;12.93;;;2.25;;
41446;SDS011;27185;52.040;4.490;2024-03-23T07:32:01;12.00;;;1.52;;
41446;SDS011;27185;52.040;4.490;2024-03-23T07:34:47;14.50;;;1.50;;
41446;SDS011;27185;52.040;4.490;2024-03-23T07:37:32;17.92;;;1.58;;
41446;SDS011;27185;52.040;4.490;2024-03-23T07:40:18;13.02;;;1.65;;
41446;SDS011;27185;52.040;4.490;2024-03-23T07:43:03;10.35;;;1.55;;
41446;SDS011;27185;52.040;4.490;2024-03-23T07:45:52;14.23;;;1.40;;
41446;SDS011;27185;52.040;4.490;2024-03-23T07:48:38;10.75;;;1.83;;
41446;SDS011;27185;52.040;4.490;2024-03-23T07:51:25;7.30;;;1.33;;
41446;SDS011;27185;52.040;4.490;2024-03-23T07:54:10;15.80;;;1.60;;
41446;SDS011;27185;52.040;4.490;2024-03-23T07:56:56;10.45;;;1.35;;
41446;SDS011;27185;52.040;4.490;2024-03-23T07:59:42;13.93;;;1.92;;
41446;SDS011;27185;52.040;4.490;2024-03-23T08:02:27;10.13;;;1.90;;
41446;SDS011;27185;52.040;4.490;2024-03-23T08:05:13;9.85;;;1.48;;
41446;SDS011;27185;52.040;4.490;2024-03-23T08:07:58;8.73;;;0.95;;
41446;SDS011;27185;52.040;4.490;2024-03-23T08:10:50;12.77;;;1.42;;
41446;SDS011;27185;52.040;4.490;2024-03-23T08:13:38;18.60;;;1.70;;
41446;SDS011;27185;52.040;4.490;2024-03-23T08:16:25;9.60;;;1.50;;
41446;SDS011;27185;52.040;4.490;2024-03-23T08:19:10;12.15;;;1.83;;
41446;SDS011;27185;52.040;4.490;2024-03-23T08:21:56;11.70;;;1.65;;
41446;SDS011;27185;52.040;4.490;2024-03-23T08:24:41;8.82;;;1.85;;
41446;SDS011;27185;52.040;4.490;2024-03-23T08:27:27;5.10;;;0.95;;
41446;SDS011;27185;52.040;4.490;2024-03-23T08:30:12;16.13;;;2.33;;
41446;SDS011;27185;52.040;4.490;2024-03-23T08:32:58;12.30;;;2.10;;
41446;SDS011;27185;52.040;4.490;2024-03-23T08:35:54;12.55;;;1.88;;
41446;SDS011;27185;52.040;4.490;2024-03-23T08:38:43;16.88;;;1.95;;
41446;SDS011;27185;52.040;4.490;2024-03-23T08:41:29;11.15;;;1.95;;
41446;SDS011;27185;52.040;4.490;2024-03-23T08:44:14;9.90;;;1.60;;
41446;SDS011;27185;52.040;4.490;2024-03-23T08:47:00;12.15;;;1.85;;
41446;SDS011;27185;52.040;4.490;2024-03-23T08:49:46;11.85;;;1.80;;
41446;SDS011;27185;52.040;4.490;2024-03-23T08:52:32;9.82;;;1.50;;
41446;SDS011;27185;52.040;4.490;2024-03-23T08:55:18;9.05;;;1.55;;
41446;SDS011;27185;52.040;4.490;2024-03-23T08:58:04;13.50;;;1.80;;
41446;SDS011;27185;52.040;4.490;2024-03-23T09:00:50;9.77;;;1.88;;
41446;SDS011;27185;52.040;4.490;2024-03-23T09:03:42;12.27;;;1.42;;
41446;SDS011;27185;52.040;4.490;2024-03-23T09:06:27;13.07;;;1.92;;
41446;SDS011;27185;52.040;4.490;2024-03-23T09:09:13;13.13;;;2.28;;
41446;SDS011;27185;52.040;4.490;2024-03-23T09:11:58;21.58;;;2.53;;
41446;SDS011;27185;52.040;4.490;2024-03-23T09:14:44;10.73;;;1.70;;
41446;SDS011;27185;52.040;4.490;2024-03-23T09:17:29;7.80;;;2.00;;
41446;SDS011;27185;52.040;4.490;2024-03-23T09:20:15;13.68;;;1.80;;
41446;SDS011;27185;52.040;4.490;2024-03-23T09:23:00;7.68;;;1.25;;
41446;SDS011;27185;52.040;4.490;2024-03-23T09:25:46;11.10;;;1.70;;
41446;SDS011;27185;52.040;4.490;2024-03-23T09:28:32;13.32;;;1.63;;
41446;SDS011;27185;52.040;4.490;2024-03-23T09:31:17;7.82;;;1.10;;
41446;SDS011;27185;52.040;4.490;2024-03-23T09:34:03;12.80;;;1.58;;
41446;SDS011;27185;52.040;4.490;2024-03-23T09:36:52;14.38;;;1.85;;
41446;SDS011;27185;52.040;4.490;2024-03-23T09:39:37;11.35;;;1.83;;
41446;SDS011;27185;52.040;4.490;2024-03-23T09:42:23;10.38;;;1.83;;
41446;SDS011;27185;52.040;4.490;2024-03-23T09:45:11;15.02;;;1.75;;
41446;SDS011;27185;52.040;4.490;2024-03-23T09:48:05;12.40;;;2.33;;
41446;SDS011;27185;52.040;4.490;2024-03-23T09:50:52;10.73;;;1.88;;
41446;SDS011;27185;52.040;4.490;2024-03-23T09:53:37;12.20;;;1.83;;
41446;SDS011;27185;52.040;4.490;2024-03-23T09:56:23;12.25;;;2.42;;
41446;SDS011;27185;52.040;4.490;2024-03-23T09:59:09;12.20;;;1.75;;
41446;SDS011;27185;52.040;4.490;2024-03-23T10:01:55;10.45;;;1.45;;
41446;SDS011;27185;52.040;4.490;2024-03-23T10:04:41;9.98;;;1.58;;
41446;SDS011;27185;52.040;4.490;2024-03-23T10:07:27;11.55;;;2.15;;
41446;SDS011;27185;52.040;4.490;2024-03-23T10:10:14;10.70;;;1.98;;
41446;SDS011;27185;52.040;4.490;2024-03-23T10:13:01;11.33;;;1.40;;
41446;SDS011;27185;52.040;4.490;2024-03-23T10:15:46;9.77;;;1.60;;
41446;SDS011;27185;52.040;4.490;2024-03-23T10:18:40;12.25;;;1.85;;
41446;SDS011;27185;52.040;4.490;2024-03-23T10:21:25;12.65;;;1.48;;
41446;SDS011;27185;52.040;4.490;2024-03-23T10:24:11;16.83;;;1.55;;
41446;SDS011;27185;52.040;4.490;2024-03-23T10:26:58;12.15;;;1.30;;
41446;SDS011;27185;52.040;4.490;2024-03-23T10:29:44;8.50;;;1.40;;
41446;SDS011;27185;52.040;4.490;2024-03-23T10:32:33;12.25;;;1.60;;
41446;SDS011;27185;52.040;4.490;2024-03-23T10:35:21;8.18;;;1.40;;
41446;SDS011;27185;52.040;4.490;2024-03-23T10:38:07;10.75;;;1.70;;
41446;SDS011;27185;52.040;4.490;2024-03-23T10:40:53;8.40;;;1.38;;
41446;SDS011;27185;52.040;4.490;2024-03-23T10:43:40;13.40;;;1.30;;
41446;SDS011;27185;52.040;4.490;2024-03-23T10:46:25;7.97;;;1.63;;
41446;SDS011;27185;52.040;4.490;2024-03-23T10:49:11;11.45;;;2.22;;
41446;SDS011;27185;52.040;4.490;2024-03-23T10:51:57;9.30;;;1.30;;
41446;SDS011;27185;52.040;4.490;2024-03-23T10:54:47;13.25;;;1.33;;
41446;SDS011;27185;52.040;4.490;2024-03-23T10:57:40;13.73;;;1.92;;
41446;SDS011;27185;52.040;4.490;2024-03-23T11:00:29;9.48;;;1.55;;
41446;SDS011;27185;52.040;4.490;2024-03-23T11:03:30;10.15;;;1.88;;
41446;SDS011;27185;52.040;4.490;2024-03-23T11:09:42;13.50;;;1.25;;
41446;SDS011;27185;52.040;4.490;2024-03-23T11:12:31;12.68;;;1.45;;
41446;SDS011;27185;52.040;4.490;2024-03-23T11:15:18;10.05;;;1.70;;
41446;SDS011;27185;52.040;4.490;2024-03-23T11:18:04;8.63;;;1.50;;
41446;SDS011;27185;52.040;4.490;2024-03-23T11:20:53;11.68;;;1.35;;
41446;SDS011;27185;52.040;4.490;2024-03-23T11:23:38;8.15;;;1.55;;
41446;SDS011;27185;52.040;4.490;2024-03-23T11:26:24;14.50;;;1.92;;
41446;SDS011;27185;52.040;4.490;2024-03-23T11:29:09;9.07;;;1.52;;
41446;SDS011;27185;52.040;4.490;2024-03-23T11:31:56;5.90;;;1.27;;
41446;SDS011;27185;52.040;4.490;2024-03-23T11:34:42;10.02;;;1.10;;
41446;SDS011;27185;52.040;4.490;2024-03-23T11:37:28;9.02;;;1.48;;
41446;SDS011;27185;52.040;4.490;2024-03-23T11:40:17;11.15;;;1.48;;
41446;SDS011;27185;52.040;4.490;2024-03-23T11:43:04;8.57;;;1.35;;
41446;SDS011;27185;52.040;4.490;2024-03-23T11:45:51;10.63;;;1.73;;
41446;SDS011;27185;52.040;4.490;2024-03-23T11:48:39;9.35;;;1.13;;
41446;SDS011;27185;52.040;4.490;2024-03-23T11:51:24;11.20;;;1.25;;
41446;SDS011;27185;52.040;4.490;2024-03-23T11:54:10;8.48;;;1.63;;
41446;SDS011;27185;52.040;4.490;2024-03-23T11:59:44;9.05;;;1.30;;
41446;SDS011;27185;52.040;4.490;2024-03-23T12:02:30;4.88;;;0.85;;
41446;SDS011;27185;52.040;4.490;2024-03-23T12:05:16;10.63;;;1.83;;
41446;SDS011;27185;52.040;4.490;2024-03-23T12:11:15;7.18;;;1.02;;
41446;SDS011;27185;52.040;4.490;2024-03-23T12:14:01;10.80;;;1.67;;
41446;SDS011;27185;52.040;4.490;2024-03-23T12:16:47;10.23;;;1.55;;
41446;SDS011;27185;52.040;4.490;2024-03-23T12:19:32;17.90;;;1.92;;
41446;SDS011;27185;52.040;4.490;2024-03-23T12:22:21;4.07;;;0.80;;
41446;SDS011;27185;52.040;4.490;2024-03-23T12:25:07;6.07;;;0.70;;
41446;SDS011;27185;52.040;4.490;2024-03-23T12:27:53;6.95;;;0.60;;
41446;SDS011;27185;52.040;4.490;2024-03-23T12:30:39;5.30;;;0.70;;
41446;SDS011;27185;52.040;4.490;2024-03-23T12:33:25;5.70;;;0.77;;
41446;SDS011;27185;52.040;4.490;2024-03-23T12:36:10;8.32;;;0.93;;
41446;SDS011;27185;52.040;4.490;2024-03-23T12:38:56;7.03;;;0.93;;
41446;SDS011;27185;52.040;4.490;2024-03-23T12:41:41;9.70;;;1.25;;
41446;SDS011;27185;52.040;4.490;2024-03-23T12:44:27;13.23;;;1.17;;
41446;SDS011;27185;52.040;4.490;2024-03-23T12:47:13;10.23;;;1.00;;
41446;SDS011;27185;52.040;4.490;2024-03-23T12:49:58;9.32;;;1.10;;
41446;SDS011;27185;52.040;4.490;2024-03-23T12:52:45;17.70;;;2.08;;
41446;SDS011;27185;52.040;4.490;2024-03-23T12:55:34;9.95;;;1.40;;
41446;SDS011;27185;52.040;4.490;2024-03-23T12:58:20;12.93;;;1.42;;
41446;SDS011;27185;52.040;4.490;2024-03-23T13:01:06;10.68;;;1.05;;
41446;SDS011;27185;52.040;4.490;2024-03-23T13:03:52;6.80;;;1.15;;
41446;SDS011;27185;52.040;4.490;2024-03-23T13:06:38;9.55;;;1.38;;
41446;SDS011;27185;52.040;4.490;2024-03-23T13:09:23;8.50;;;1.10;;
41446;SDS011;27185;52.040;4.490;2024-03-23T13:12:09;8.75;;;1.27;;
41446;SDS011;27185;52.040;4.490;2024-03-23T13:14:55;10.82;;;1.63;;
41446;SDS011;27185;52.040;4.490;2024-03-23T13:17:40;12.30;;;1.50;;
41446;SDS011;27185;52.040;4.490;2024-03-23T13:20:26;14.68;;;1.30;;
41446;SDS011;27185;52.040;4.490;2024-03-23T13:23:11;11.55;;;1.52;;
41446;SDS011;27185;52.040;4.490;2024-03-23T13:25:57;7.38;;;0.90;;
41446;SDS011;27185;52.040;4.490;2024-03-23T13:28:42;8.95;;;1.40;;
41446;SDS011;27185;52.040;4.490;2024-03-23T13:31:29;8.75;;;1.20;;
41446;SDS011;27185;52.040;4.490;2024-03-23T13:34:15;9.77;;;1.23;;
41446;SDS011;27185;52.040;4.490;2024-03-23T13:37:01;13.07;;;1.35;;
41446;SDS011;27185;52.040;4.490;2024-03-23T13:39:46;7.45;;;1.17;;
41446;SDS011;27185;52.040;4.490;2024-03-23T13:42:32;10.32;;;1.40;;
41446;SDS011;27185;52.040;4.490;2024-03-23T13:45:18;13.73;;;1.90;;
41446;SDS011;27185;52.040;4.490;2024-03-23T13:48:03;10.27;;;1.50;;
41446;SDS011;27185;52.040;4.490;2024-03-23T13:50:59;8.75;;;1.45;;
41446;SDS011;27185;52.040;4.490;2024-03-23T13:53:45;4.65;;;0.75;;
41446;SDS011;27185;52.040;4.490;2024-03-23T13:56:31;6.60;;;0.52;;
41446;SDS011;27185;52.040;4.490;2024-03-23T13:59:16;5.65;;;0.60;;
41446;SDS011;27185;52.040;4.490;2024-03-23T14:02:02;6.70;;;0.88;;
41446;SDS011;27185;52.040;4.490;2024-03-23T14:04:48;6.90;;;0.70;;
41446;SDS011;27185;52.040;4.490;2024-03-23T14:07:34;5.85;;;0.80;;
41446;SDS011;27185;52.040;4.490;2024-03-23T14:10:19;5.15;;;0.70;;
41446;SDS011;27185;52.040;4.490;2024-03-23T14:13:05;6.30;;;0.70;;
41446;SDS011;27185;52.040;4.490;2024-03-23T14:15:53;6.07;;;0.80;;
41446;SDS011;27185;52.040;4.490;2024-03-23T14:18:39;6.32;;;1.65;;
41446;SDS011;27185;52.040;4.490;2024-03-23T14:21:25;12.65;;;0.90;;
41446;SDS011;27185;52.040;4.490;2024-03-23T14:24:10;7.93;;;1.30;;
41446;SDS011;27185;52.040;4.490;2024-03-23T14:26:56;5.15;;;0.93;;
41446;SDS011;27185;52.040;4.490;2024-03-23T14:29:41;8.18;;;1.08;;
41446;SDS011;27185;52.040;4.490;2024-03-23T14:32:30;12.07;;;1.27;;
41446;SDS011;27185;52.040;4.490;2024-03-23T14:35:19;9.75;;;1.33;;
41446;SDS011;27185;52.040;4.490;2024-03-23T14:38:04;6.85;;;1.23;;
41446;SDS011;27185;52.040;4.490;2024-03-23T14:40:50;8.30;;;1.00;;
41446;SDS011;27185;52.040;4.490;2024-03-23T14:43:39;11.77;;;1.40;;
41446;SDS011;27185;52.040;4.490;2024-03-23T14:46:24;11.15;;;1.48;;
41446;SDS011;27185;52.040;4.490;2024-03-23T14:49:14;11.98;;;1.00;;
41446;SDS011;27185;52.040;4.490;2024-03-23T14:52:01;9.77;;;1.20;;
41446;SDS011;27185;52.040;4.490;2024-03-23T14:54:47;7.32;;;0.80;;
41446;SDS011;27185;52.040;4.490;2024-03-23T14:57:33;8.90;;;1.38;;
41446;SDS011;27185;52.040;4.490;2024-03-23T15:00:19;5.95;;;0.80;;
41446;SDS011;27185;52.040;4.490;2024-03-23T15:03:04;5.60;;;0.70;;
41446;SDS011;27185;52.040;4.490;2024-03-23T15:05:53;8.43;;;0.98;;
41446;SDS011;27185;52.040;4.490;2024-03-23T15:08:43;5.45;;;0.90;;
41446;SDS011;27185;52.040;4.490;2024-03-23T15:11:28;8.32;;;1.23;;
41446;SDS011;27185;52.040;4.490;2024-03-23T15:14:14;9.70;;;1.70;;
41446;SDS011;27185;52.040;4.490;2024-03-23T15:16:59;4.45;;;0.80;;
41446;SDS011;27185;52.040;4.490;2024-03-23T15:19:45;8.65;;;1.27;;
41446;SDS011;27185;52.040;4.490;2024-03-23T15:22:30;7.05;;;1.40;;
41446;SDS011;27185;52.040;4.490;2024-03-23T15:25:16;7.65;;;0.85;;
41446;SDS011;27185;52.040;4.490;2024-03-23T15:28:02;11.43;;;1.33;;
41446;SDS011;27185;52.040;4.490;2024-03-23T15:30:47;8.35;;;1.48;;
41446;SDS011;27185;52.040;4.490;2024-03-23T15:33:33;9.18;;;1.42;;
41446;SDS011;27185;52.040;4.490;2024-03-23T15:36:18;10.07;;;1.25;;
41446;SDS011;27185;52.040;4.490;2024-03-23T15:39:04;6.18;;;0.80;;
41446;SDS011;27185;52.040;4.490;2024-03-23T15:41:51;7.13;;;0.87;;
41446;SDS011;27185;52.040;4.490;2024-03-23T15:44:39;3.72;;;0.60;;
41446;SDS011;27185;52.040;4.490;2024-03-23T15:47:24;3.28;;;0.60;;
41446;SDS011;27185;52.040;4.490;2024-03-23T15:50:10;9.02;;;0.77;;
41446;SDS011;27185;52.040;4.490;2024-03-23T15:52:56;5.88;;;0.70;;
41446;SDS011;27185;52.040;4.490;2024-03-23T15:55:41;2.88;;;0.60;;
41446;SDS011;27185;52.040;4.490;2024-03-23T15:58:27;7.22;;;0.93;;
41446;SDS011;27185;52.040;4.490;2024-03-23T16:01:13;4.13;;;0.77;;
41446;SDS011;27185;52.040;4.490;2024-03-23T16:03:59;4.13;;;0.63;;
41446;SDS011;27185;52.040;4.490;2024-03-23T16:06:48;5.85;;;1.10;;
41446;SDS011;27185;52.040;4.490;2024-03-23T16:09:35;5.80;;;0.65;;
41446;SDS011;27185;52.040;4.490;2024-03-23T16:12:20;6.72;;;0.93;;
41446;SDS011;27185;52.040;4.490;2024-03-23T16:15:06;5.15;;;0.60;;
41446;SDS011;27185;52.040;4.490;2024-03-23T16:17:52;5.53;;;1.00;;
41446;SDS011;27185;52.040;4.490;2024-03-23T16:20:37;5.75;;;0.80;;
41446;SDS011;27185;52.040;4.490;2024-03-23T16:23:23;8.95;;;1.15;;
41446;SDS011;27185;52.040;4.490;2024-03-23T16:26:09;4.07;;;0.93;;
41446;SDS011;27185;52.040;4.490;2024-03-23T16:28:57;6.47;;;1.00;;
41446;SDS011;27185;52.040;4.490;2024-03-23T16:31:42;4.25;;;0.85;;
41446;SDS011;27185;52.040;4.490;2024-03-23T16:34:28;5.03;;;0.70;;
41446;SDS011;27185;52.040;4.490;2024-03-23T16:37:13;5.97;;;0.70;;
41446;SDS011;27185;52.040;4.490;2024-03-23T16:39:59;8.70;;;1.10;;
41446;SDS011;27185;52.040;4.490;2024-03-23T16:42:45;7.60;;;1.10;;
41446;SDS011;27185;52.040;4.490;2024-03-23T16:45:30;5.35;;;0.73;;
41446;SDS011;27185;52.040;4.490;2024-03-23T16:48:16;7.93;;;0.73;;
41446;SDS011;27185;52.040;4.490;2024-03-23T16:51:02;3.95;;;0.70;;
41446;SDS011;27185;52.040;4.490;2024-03-23T16:53:48;4.50;;;0.60;;
41446;SDS011;27185;52.040;4.490;2024-03-23T16:56:34;2.65;;;0.40;;
41446;SDS011;27185;52.040;4.490;2024-03-23T16:59:20;1.23;;;0.30;;
41446;SDS011;27185;52.040;4.490;2024-03-23T17:02:06;2.70;;;0.50;;
41446;SDS011;27185;52.040;4.490;2024-03-23T17:04:51;4.93;;;0.50;;
41446;SDS011;27185;52.040;4.490;2024-03-23T17:07:37;2.53;;;0.50;;
41446;SDS011;27185;52.040;4.490;2024-03-23T17:10:23;8.57;;;0.80;;
41446;SDS011;27185;52.040;4.490;2024-03-23T17:13:09;9.35;;;1.23;;
41446;SDS011;27185;52.040;4.490;2024-03-23T17:15:54;9.68;;;0.85;;
41446;SDS011;27185;52.040;4.490;2024-03-23T17:18:40;13.65;;;1.05;;
41446;SDS011;27185;52.040;4.490;2024-03-23T17:21:26;11.95;;;1.10;;
41446;SDS011;27185;52.040;4.490;2024-03-23T17:24:12;8.00;;;1.00;;
41446;SDS011;27185;52.040;4.490;2024-03-23T17:26:58;8.18;;;1.50;;
41446;SDS011;27185;52.040;4.490;2024-03-23T17:29:43;5.30;;;0.90;;
41446;SDS011;27185;52.040;4.490;2024-03-23T17:32:31;5.87;;;0.70;;
41446;SDS011;27185;52.040;4.490;2024-03-23T17:35:16;10.95;;;1.63;;
41446;SDS011;27185;52.040;4.490;2024-03-23T17:38:04;3.83;;;0.98;;